createdAt,value
2018-10-11T16:28:08.813Z,30.60
2018-10-11T16:29:08.757Z,14.20
2018-10-11T16:30:08.769Z,13.20
2018-10-11T16:31:08.844Z,13.10
2018-10-11T16:32:08.790Z,13.60
2018-10-11T16:33:08.820Z,13.60
2018-10-11T16:34:08.791Z,13.10
2018-10-11T16:35:08.870Z,13.90
2018-10-11T16:36:08.828Z,12.80
2018-10-11T16:37:08.863Z,12.70
2018-10-11T16:38:08.840Z,13.50
2018-10-11T16:39:08.901Z,12.70
2018-10-11T16:40:08.849Z,13.40
2018-10-11T16:41:08.850Z,14.70
2018-10-11T16:42:08.921Z,13.20
2018-10-11T16:43:08.896Z,12.70
2018-10-11T16:44:08.912Z,15.00
2018-10-11T16:45:08.919Z,14.30
2018-10-11T16:46:08.900Z,13.90
2018-10-11T16:47:08.932Z,14.20
2018-10-11T16:48:08.958Z,15.00
2018-10-11T16:49:08.935Z,13.50
2018-10-11T16:50:09.016Z,13.30
2018-10-11T16:51:09.000Z,13.70
2018-10-11T16:52:08.981Z,12.60
2018-10-11T16:53:09.006Z,12.80
2018-10-11T16:54:08.983Z,13.10
2018-10-11T16:55:09.001Z,15.10
2018-10-11T16:56:09.013Z,13.90
2018-10-11T16:57:09.025Z,14.00
2018-10-11T16:58:09.078Z,14.30
2018-10-11T16:59:09.050Z,14.70
2018-10-11T17:00:09.082Z,14.90
2018-10-11T17:01:09.064Z,15.80
2018-10-11T17:02:09.083Z,14.60
2018-10-11T17:03:09.141Z,14.50
2018-10-11T17:04:09.233Z,14.10
2018-10-11T17:05:09.122Z,15.40
2018-10-11T17:06:09.146Z,14.00
2018-10-11T17:07:09.179Z,13.90
2018-10-11T17:08:09.156Z,16.10
2018-10-11T17:09:09.220Z,15.40
2018-10-11T17:10:09.206Z,14.70
2018-10-11T17:11:09.269Z,14.30
2018-10-11T17:12:09.257Z,13.90
2018-10-11T17:13:09.233Z,14.60
2018-10-11T17:14:09.255Z,14.20
2018-10-11T17:15:09.278Z,15.50
2018-10-11T17:16:09.250Z,14.90
2018-10-11T17:17:09.349Z,15.10
2018-10-11T17:18:09.256Z,15.60
2018-10-11T17:19:09.262Z,14.80
2018-10-11T17:20:09.351Z,14.50
2018-10-11T17:21:09.409Z,16.30
2018-10-11T17:22:09.394Z,15.90
2018-10-11T17:23:09.330Z,15.50
2018-10-11T17:24:09.327Z,17.30
2018-10-11T17:25:09.366Z,15.40
2018-10-11T17:26:09.394Z,15.50
2018-10-11T17:27:09.353Z,16.10
2018-10-11T17:28:09.410Z,14.90
2018-10-11T17:29:09.388Z,15.20
2018-10-11T17:30:09.378Z,16.30
2018-10-11T17:31:09.414Z,14.60
2018-10-11T17:32:09.409Z,14.00
2018-10-11T17:33:09.501Z,15.00
2018-10-11T17:34:09.437Z,14.90
2018-10-11T17:35:09.526Z,16.00
2018-10-11T17:36:10.195Z,16.90
2018-10-11T17:37:10.673Z,15.50
2018-10-11T17:38:10.451Z,15.40
2018-10-11T17:39:09.507Z,14.80
2018-10-11T17:40:09.524Z,15.10
2018-10-11T17:41:09.621Z,15.40
2018-10-11T17:42:09.534Z,15.30
2018-10-11T17:43:09.513Z,14.80
2018-10-11T17:44:09.527Z,14.50
2018-10-11T17:45:09.828Z,15.00
2018-10-11T17:46:09.566Z,15.00
2018-10-11T17:47:09.594Z,15.90
2018-10-11T17:48:09.576Z,15.40
2018-10-11T17:49:09.586Z,15.70
2018-10-11T17:50:09.701Z,16.00
2018-10-11T17:51:09.662Z,14.70
2018-10-11T17:52:09.619Z,15.40
2018-10-11T17:53:09.626Z,16.10
2018-10-11T17:54:09.639Z,17.10
2018-10-11T17:55:09.697Z,16.20
2018-10-11T17:56:09.653Z,15.60
2018-10-11T17:57:09.726Z,15.80
2018-10-11T17:58:09.723Z,16.60
2018-10-11T17:59:09.715Z,16.50
2018-10-11T18:00:09.763Z,16.30
2018-10-11T18:01:09.717Z,17.10
2018-10-11T18:02:09.772Z,15.80
2018-10-11T18:03:09.778Z,15.90
2018-10-11T18:04:09.777Z,15.70
2018-10-11T18:05:09.814Z,15.70
2018-10-11T18:06:09.771Z,17.70
2018-10-11T18:07:09.835Z,16.80
2018-10-11T18:08:09.790Z,16.30
2018-10-11T18:09:09.816Z,19.20
2018-10-11T18:10:10.058Z,15.60
2018-10-11T18:11:09.820Z,16.10
2018-10-11T18:12:09.904Z,17.30
2018-10-11T18:13:09.874Z,18.20
2018-10-11T18:14:09.885Z,15.80
2018-10-11T18:15:09.886Z,17.20
2018-10-11T18:16:09.999Z,16.50
2018-10-11T18:17:09.894Z,16.20
2018-10-11T18:18:09.930Z,15.60
2018-10-11T18:19:10.011Z,16.70
2018-10-11T18:20:09.966Z,16.50
2018-10-11T18:21:10.071Z,15.80
2018-10-11T18:22:09.993Z,16.40
2018-10-11T18:23:09.986Z,16.40
2018-10-11T18:24:10.008Z,15.80
2018-10-11T18:25:09.976Z,16.00
2018-10-11T18:26:09.983Z,15.70
2018-10-11T18:27:10.005Z,17.60
2018-10-11T18:28:10.020Z,17.40
2018-10-11T18:29:10.139Z,17.30
2018-10-11T18:30:10.015Z,17.10
2018-10-11T18:31:10.041Z,17.70
2018-10-11T18:32:10.041Z,16.50
2018-10-11T18:33:10.051Z,16.90
2018-10-11T18:34:10.109Z,15.60
2018-10-11T18:35:10.076Z,21.20
2018-10-11T18:36:10.103Z,16.50
2018-10-11T18:37:10.106Z,18.20
2018-10-11T18:38:10.124Z,18.30
2018-10-11T18:39:10.229Z,17.10
2018-10-11T18:40:10.136Z,15.80
2018-10-11T18:41:10.155Z,17.00
2018-10-11T18:42:10.159Z,17.40
2018-10-11T18:43:10.197Z,19.30
2018-10-11T18:44:10.173Z,17.70
2018-10-11T18:45:10.293Z,17.70
2018-10-11T18:46:10.380Z,17.60
2018-10-11T18:47:10.198Z,18.90
2018-10-11T18:48:10.232Z,19.80
2018-10-11T18:49:10.321Z,23.40
2018-10-11T18:50:10.319Z,23.70
2018-10-11T18:51:10.261Z,25.40
2018-10-11T18:52:10.316Z,18.60
2018-10-11T18:53:10.300Z,20.40
2018-10-11T18:54:10.280Z,19.90
2018-10-11T18:55:10.281Z,21.00
2018-10-11T18:56:10.341Z,21.30
2018-10-11T18:57:10.346Z,26.50
2018-10-11T18:58:10.318Z,25.70
2018-10-11T18:59:10.372Z,24.10
2018-10-11T19:00:10.342Z,21.30
2018-10-11T19:01:10.352Z,18.40
2018-10-11T19:02:10.378Z,17.40
2018-10-11T19:03:10.420Z,16.50
2018-10-11T19:04:10.392Z,18.30
2018-10-11T19:05:10.501Z,16.60
2018-10-11T19:06:10.472Z,19.10
2018-10-11T19:07:10.451Z,17.20
2018-10-11T19:08:10.474Z,17.80
2018-10-11T19:09:10.639Z,17.00
2018-10-11T19:10:10.473Z,17.60
2018-10-11T19:11:10.454Z,15.80
2018-10-11T19:12:10.480Z,17.80
2018-10-11T19:13:10.538Z,19.10
2018-10-11T19:14:10.609Z,15.20
2018-10-11T19:15:10.526Z,16.50
2018-10-11T19:16:10.513Z,17.40
2018-10-11T19:17:10.522Z,17.50
2018-10-11T19:18:10.551Z,17.60
2018-10-11T19:19:10.609Z,16.50
2018-10-11T19:20:10.553Z,18.70
2018-10-11T19:21:10.762Z,17.20
2018-10-11T19:22:10.591Z,18.00
2018-10-11T19:23:10.583Z,16.50
2018-10-11T19:24:10.651Z,18.10
2018-10-11T19:25:10.662Z,17.80
